sensor_id;sensor_type;location;lat;lon;timestamp;P1;durP1;ratioP1;P2;durP2;ratioP2
67712;SDS011;67640;55.784;49.138;2024-03-06T00:02:50;4.55;;;1.27;;
67712;SDS011;67640;55.784;49.138;2024-03-06T00:08:09;4.27;;;1.57;;
67712;SDS011;67640;55.784;49.138;2024-03-06T00:13:26;5.22;;;1.50;;
67712;SDS011;67640;55.784;49.138;2024-03-06T00:18:31;4.37;;;1.32;;
67712;SDS011;67640;55.784;49.138;2024-03-06T00:23:49;4.42;;;1.07;;
67712;SDS011;67640;55.784;49.138;2024-03-06T00:28:57;3.70;;;1.07;;
67712;SDS011;67640;55.784;49.138;2024-03-06T00:34:22;4.58;;;1.40;;
67712;SDS011;67640;55.784;49.138;2024-03-06T00:39:42;3.00;;;1.00;;
67712;SDS011;67640;55.784;49.138;2024-03-06T00:45:01;4.90;;;1.45;;
67712;SDS011;67640;55.784;49.138;2024-03-06T00:50:21;3.92;;;1.42;;
67712;SDS011;67640;55.784;49.138;2024-03-06T00:55:26;3.93;;;1.20;;
67712;SDS011;67640;55.784;49.138;2024-03-06T01:00:32;4.60;;;1.57;;
67712;SDS011;67640;55.784;49.138;2024-03-06T01:05:53;3.63;;;1.40;;
67712;SDS011;67640;55.784;49.138;2024-03-06T01:11:13;4.83;;;1.70;;
67712;SDS011;67640;55.784;49.138;2024-03-06T01:16:32;4.37;;;1.47;;
67712;SDS011;67640;55.784;49.138;2024-03-06T01:21:38;4.70;;;1.70;;
67712;SDS011;67640;55.784;49.138;2024-03-06T01:26:43;6.08;;;1.40;;
67712;SDS011;67640;55.784;49.138;2024-03-06T01:32:00;3.95;;;1.22;;
67712;SDS011;67640;55.784;49.138;2024-03-06T01:37:06;5.00;;;1.50;;
67712;SDS011;67640;55.784;49.138;2024-03-06T01:42:16;3.67;;;1.30;;
67712;SDS011;67640;55.784;49.138;2024-03-06T01:47:34;3.70;;;1.47;;
67712;SDS011;67640;55.784;49.138;2024-03-06T01:52:53;5.00;;;1.50;;
67712;SDS011;67640;55.784;49.138;2024-03-06T01:58:16;4.97;;;1.55;;
67712;SDS011;67640;55.784;49.138;2024-03-06T02:03:35;4.77;;;1.60;;
67712;SDS011;67640;55.784;49.138;2024-03-06T02:08:41;5.10;;;1.90;;
67712;SDS011;67640;55.784;49.138;2024-03-06T02:14:00;4.25;;;1.45;;
67712;SDS011;67640;55.784;49.138;2024-03-06T02:19:06;4.47;;;1.53;;
67712;SDS011;67640;55.784;49.138;2024-03-06T02:24:10;3.90;;;1.17;;
67712;SDS011;67640;55.784;49.138;2024-03-06T02:29:30;2.75;;;0.90;;
67712;SDS011;67640;55.784;49.138;2024-03-06T02:34:49;3.47;;;0.87;;
67712;SDS011;67640;55.784;49.138;2024-03-06T02:40:08;5.00;;;1.10;;
67712;SDS011;67640;55.784;49.138;2024-03-06T02:45:14;3.43;;;0.97;;
67712;SDS011;67640;55.784;49.138;2024-03-06T02:50:21;2.62;;;1.02;;
67712;SDS011;67640;55.784;49.138;2024-03-06T02:55:31;3.12;;;1.15;;
67712;SDS011;67640;55.784;49.138;2024-03-06T03:00:49;2.75;;;0.68;;
67712;SDS011;67640;55.784;49.138;2024-03-06T03:05:53;3.42;;;0.98;;
67712;SDS011;67640;55.784;49.138;2024-03-06T03:11:13;2.12;;;0.80;;
67712;SDS011;67640;55.784;49.138;2024-03-06T03:16:18;3.13;;;0.77;;
67712;SDS011;67640;55.784;49.138;2024-03-06T03:21:37;3.02;;;0.70;;
67712;SDS011;67640;55.784;49.138;2024-03-06T03:26:56;3.72;;;0.78;;
67712;SDS011;67640;55.784;49.138;2024-03-06T03:32:15;4.37;;;1.07;;
67712;SDS011;67640;55.784;49.138;2024-03-06T03:37:20;3.15;;;1.12;;
67712;SDS011;67640;55.784;49.138;2024-03-06T03:42:25;3.67;;;1.00;;
67712;SDS011;67640;55.784;49.138;2024-03-06T03:47:30;3.42;;;0.98;;
67712;SDS011;67640;55.784;49.138;2024-03-06T03:52:48;3.20;;;0.90;;
67712;SDS011;67640;55.784;49.138;2024-03-06T03:57:53;2.73;;;0.80;;
67712;SDS011;67640;55.784;49.138;2024-03-06T04:03:11;2.70;;;0.57;;
67712;SDS011;67640;55.784;49.138;2024-03-06T04:08:17;4.12;;;1.00;;
67712;SDS011;67640;55.784;49.138;2024-03-06T04:13:22;3.60;;;0.82;;
67712;SDS011;67640;55.784;49.138;2024-03-06T04:18:41;2.77;;;0.80;;
67712;SDS011;67640;55.784;49.138;2024-03-06T04:24:00;3.50;;;1.02;;
67712;SDS011;67640;55.784;49.138;2024-03-06T04:29:19;2.20;;;0.70;;
67712;SDS011;67640;55.784;49.138;2024-03-06T04:34:25;3.90;;;1.12;;
67712;SDS011;67640;55.784;49.138;2024-03-06T04:39:30;4.87;;;1.45;;
67712;SDS011;67640;55.784;49.138;2024-03-06T04:44:36;29.12;;;10.75;;
67712;SDS011;67640;55.784;49.138;2024-03-06T04:49:55;21.07;;;7.90;;
67712;SDS011;67640;55.784;49.138;2024-03-06T04:55:13;3.95;;;1.62;;
67712;SDS011;67640;55.784;49.138;2024-03-06T05:00:17;3.20;;;1.00;;
67712;SDS011;67640;55.784;49.138;2024-03-06T05:05:36;6.20;;;1.27;;
67712;SDS011;67640;55.784;49.138;2024-03-06T05:10:56;6.03;;;1.67;;
67712;SDS011;67640;55.784;49.138;2024-03-06T05:16:01;9.20;;;2.93;;
67712;SDS011;67640;55.784;49.138;2024-03-06T05:21:06;4.60;;;1.60;;
67712;SDS011;67640;55.784;49.138;2024-03-06T05:26:25;8.53;;;2.33;;
67712;SDS011;67640;55.784;49.138;2024-03-06T05:31:44;3.85;;;1.30;;
67712;SDS011;67640;55.784;49.138;2024-03-06T05:37:03;4.28;;;1.10;;
67712;SDS011;67640;55.784;49.138;2024-03-06T05:42:22;3.40;;;1.07;;
67712;SDS011;67640;55.784;49.138;2024-03-06T05:47:27;8.85;;;2.40;;
67712;SDS011;67640;55.784;49.138;2024-03-06T05:52:47;8.08;;;2.70;;
67712;SDS011;67640;55.784;49.138;2024-03-06T05:57:52;10.77;;;3.87;;
67712;SDS011;67640;55.784;49.138;2024-03-06T06:02:58;21.35;;;4.12;;
67712;SDS011;67640;55.784;49.138;2024-03-06T06:08:03;6.95;;;1.70;;
67712;SDS011;67640;55.784;49.138;2024-03-06T06:13:22;4.00;;;0.93;;
67712;SDS011;67640;55.784;49.138;2024-03-06T06:18:42;2.67;;;0.95;;
67712;SDS011;67640;55.784;49.138;2024-03-06T06:23:47;4.50;;;1.00;;
67712;SDS011;67640;55.784;49.138;2024-03-06T06:29:04;4.00;;;1.20;;
67712;SDS011;67640;55.784;49.138;2024-03-06T06:34:09;7.17;;;1.45;;
67712;SDS011;67640;55.784;49.138;2024-03-06T06:39:28;8.58;;;1.50;;
67712;SDS011;67640;55.784;49.138;2024-03-06T06:44:47;6.55;;;1.15;;
67712;SDS011;67640;55.784;49.138;2024-03-06T06:50:06;3.77;;;1.25;;
67712;SDS011;67640;55.784;49.138;2024-03-06T06:55:25;4.47;;;1.20;;
67712;SDS011;67640;55.784;49.138;2024-03-06T07:00:31;4.75;;;1.57;;
67712;SDS011;67640;55.784;49.138;2024-03-06T07:05:52;5.62;;;1.05;;
67712;SDS011;67640;55.784;49.138;2024-03-06T07:10:56;5.83;;;1.60;;
67712;SDS011;67640;55.784;49.138;2024-03-06T07:16:03;5.22;;;1.22;;
67712;SDS011;67640;55.784;49.138;2024-03-06T07:21:22;5.92;;;0.78;;
67712;SDS011;67640;55.784;49.138;2024-03-06T07:26:39;5.65;;;2.20;;
67712;SDS011;67640;55.784;49.138;2024-03-06T07:31:44;5.92;;;1.57;;
67712;SDS011;67640;55.784;49.138;2024-03-06T07:37:02;7.80;;;1.30;;
67712;SDS011;67640;55.784;49.138;2024-03-06T07:42:07;4.25;;;0.80;;
67712;SDS011;67640;55.784;49.138;2024-03-06T07:47:26;3.40;;;0.60;;
67712;SDS011;67640;55.784;49.138;2024-03-06T07:52:46;3.85;;;1.10;;
67712;SDS011;67640;55.784;49.138;2024-03-06T07:57:52;4.20;;;1.00;;
67712;SDS011;67640;55.784;49.138;2024-03-06T08:03:11;3.83;;;1.22;;
67712;SDS011;67640;55.784;49.138;2024-03-06T08:08:16;2.45;;;0.88;;
67712;SDS011;67640;55.784;49.138;2024-03-06T08:13:34;5.67;;;1.12;;
67712;SDS011;67640;55.784;49.138;2024-03-06T08:18:39;4.47;;;1.17;;
67712;SDS011;67640;55.784;49.138;2024-03-06T08:23:58;4.65;;;1.05;;
67712;SDS011;67640;55.784;49.138;2024-03-06T08:29:04;5.57;;;1.37;;
67712;SDS011;67640;55.784;49.138;2024-03-06T08:34:23;3.20;;;0.93;;
67712;SDS011;67640;55.784;49.138;2024-03-06T08:39:28;8.78;;;1.10;;
67712;SDS011;67640;55.784;49.138;2024-03-06T08:44:47;3.13;;;1.17;;
67712;SDS011;67640;55.784;49.138;2024-03-06T08:50:06;7.20;;;2.05;;
67712;SDS011;67640;55.784;49.138;2024-03-06T08:55:25;2.77;;;0.68;;
67712;SDS011;67640;55.784;49.138;2024-03-06T09:00:30;3.97;;;1.57;;
67712;SDS011;67640;55.784;49.138;2024-03-06T09:05:35;7.45;;;2.15;;
67712;SDS011;67640;55.784;49.138;2024-03-06T09:10:54;5.00;;;1.00;;
67712;SDS011;67640;55.784;49.138;2024-03-06T09:16:13;5.92;;;1.85;;
67712;SDS011;67640;55.784;49.138;2024-03-06T09:21:18;6.28;;;0.93;;
67712;SDS011;67640;55.784;49.138;2024-03-06T09:26:37;5.37;;;0.90;;
67712;SDS011;67640;55.784;49.138;2024-03-06T09:31:57;3.33;;;0.40;;
67712;SDS011;67640;55.784;49.138;2024-03-06T09:37:02;2.27;;;0.55;;
67712;SDS011;67640;55.784;49.138;2024-03-06T09:42:21;2.57;;;0.60;;
67712;SDS011;67640;55.784;49.138;2024-03-06T09:48:00;4.40;;;0.90;;
67712;SDS011;67640;55.784;49.138;2024-03-06T09:53:19;4.58;;;0.75;;
67712;SDS011;67640;55.784;49.138;2024-03-06T09:58:39;4.12;;;1.15;;
67712;SDS011;67640;55.784;49.138;2024-03-06T10:03:44;2.50;;;0.60;;
67712;SDS011;67640;55.784;49.138;2024-03-06T10:08:50;3.07;;;0.90;;
67712;SDS011;67640;55.784;49.138;2024-03-06T10:14:09;6.58;;;1.25;;
67712;SDS011;67640;55.784;49.138;2024-03-06T10:19:28;9.18;;;0.90;;
67712;SDS011;67640;55.784;49.138;2024-03-06T10:24:34;3.67;;;0.87;;
67712;SDS011;67640;55.784;49.138;2024-03-06T10:35:32;8.10;;;1.20;;
67712;SDS011;67640;55.784;49.138;2024-03-06T10:40:51;3.60;;;1.07;;
67712;SDS011;67640;55.784;49.138;2024-03-06T10:46:10;4.20;;;0.80;;
67712;SDS011;67640;55.784;49.138;2024-03-06T10:51:17;3.03;;;0.90;;
67712;SDS011;67640;55.784;49.138;2024-03-06T10:56:22;5.58;;;1.27;;
67712;SDS011;67640;55.784;49.138;2024-03-06T11:01:28;3.30;;;1.20;;
67712;SDS011;67640;55.784;49.138;2024-03-06T11:06:47;2.75;;;0.88;;
67712;SDS011;67640;55.784;49.138;2024-03-06T11:11:53;4.12;;;0.98;;
67712;SDS011;67640;55.784;49.138;2024-03-06T11:28:17;5.55;;;1.22;;
67712;SDS011;67640;55.784;49.138;2024-03-06T11:50:06;8.48;;;1.00;;
67712;SDS011;67640;55.784;49.138;2024-03-06T11:55:11;6.93;;;1.20;;
67712;SDS011;67640;55.784;49.138;2024-03-06T12:00:30;5.55;;;0.90;;
67712;SDS011;67640;55.784;49.138;2024-03-06T12:05:50;8.43;;;1.00;;
67712;SDS011;67640;55.784;49.138;2024-03-06T12:11:09;5.95;;;1.07;;
67712;SDS011;67640;55.784;49.138;2024-03-06T12:16:14;3.77;;;0.80;;
67712;SDS011;67640;55.784;49.138;2024-03-06T12:21:21;3.77;;;1.03;;
67712;SDS011;67640;55.784;49.138;2024-03-06T12:26:40;6.62;;;1.62;;
67712;SDS011;67640;55.784;49.138;2024-03-06T12:31:59;6.17;;;1.17;;
67712;SDS011;67640;55.784;49.138;2024-03-06T12:37:18;6.45;;;1.30;;
67712;SDS011;67640;55.784;49.138;2024-03-06T12:42:24;8.25;;;1.30;;
67712;SDS011;67640;55.784;49.138;2024-03-06T12:47:29;4.07;;;1.00;;
67712;SDS011;67640;55.784;49.138;2024-03-06T12:52:48;4.80;;;1.20;;
67712;SDS011;67640;55.784;49.138;2024-03-06T12:57:53;9.43;;;2.90;;
67712;SDS011;67640;55.784;49.138;2024-03-06T13:03:12;10.05;;;3.08;;
67712;SDS011;67640;55.784;49.138;2024-03-06T13:08:31;15.10;;;3.27;;
67712;SDS011;67640;55.784;49.138;2024-03-06T13:13:48;7.70;;;2.60;;
67712;SDS011;67640;55.784;49.138;2024-03-06T13:18:54;9.53;;;2.70;;
67712;SDS011;67640;55.784;49.138;2024-03-06T13:24:13;10.40;;;3.00;;
67712;SDS011;67640;55.784;49.138;2024-03-06T13:29:18;7.67;;;2.13;;
67712;SDS011;67640;55.784;49.138;2024-03-06T13:34:37;5.85;;;1.85;;
67712;SDS011;67640;55.784;49.138;2024-03-06T13:39:56;5.72;;;1.62;;
67712;SDS011;67640;55.784;49.138;2024-03-06T13:45:02;6.92;;;2.15;;
67712;SDS011;67640;55.784;49.138;2024-03-06T13:55:46;11.53;;;2.72;;
67712;SDS011;67640;55.784;49.138;2024-03-06T14:00:51;6.67;;;2.70;;
67712;SDS011;67640;55.784;49.138;2024-03-06T14:06:10;11.63;;;2.95;;
67712;SDS011;67640;55.784;49.138;2024-03-06T14:11:15;12.10;;;2.30;;
67712;SDS011;67640;55.784;49.138;2024-03-06T14:16:35;6.40;;;2.17;;
67712;SDS011;67640;55.784;49.138;2024-03-06T14:21:54;8.28;;;2.40;;
67712;SDS011;67640;55.784;49.138;2024-03-06T14:26:59;12.57;;;3.40;;
67712;SDS011;67640;55.784;49.138;2024-03-06T14:32:06;10.72;;;2.98;;
67712;SDS011;67640;55.784;49.138;2024-03-06T14:37:11;8.50;;;2.83;;
67712;SDS011;67640;55.784;49.138;2024-03-06T14:42:21;8.43;;;2.85;;
67712;SDS011;67640;55.784;49.138;2024-03-06T14:47:39;9.53;;;3.30;;
67712;SDS011;67640;55.784;49.138;2024-03-06T14:52:46;24.45;;;3.87;;
67712;SDS011;67640;55.784;49.138;2024-03-06T14:57:51;12.07;;;3.60;;
67712;SDS011;67640;55.784;49.138;2024-03-06T15:03:10;14.63;;;4.37;;
67712;SDS011;67640;55.784;49.138;2024-03-06T15:08:29;16.63;;;4.83;;
67712;SDS011;67640;55.784;49.138;2024-03-06T15:13:48;14.43;;;3.98;;
67712;SDS011;67640;55.784;49.138;2024-03-06T15:18:53;16.97;;;4.08;;
67712;SDS011;67640;55.784;49.138;2024-03-06T15:23:59;14.98;;;3.72;;
67712;SDS011;67640;55.784;49.138;2024-03-06T15:29:05;13.83;;;4.33;;
67712;SDS011;67640;55.784;49.138;2024-03-06T15:34:23;9.70;;;3.05;;
67712;SDS011;67640;55.784;49.138;2024-03-06T15:39:29;11.90;;;3.97;;
67712;SDS011;67640;55.784;49.138;2024-03-06T15:44:34;10.13;;;3.30;;
67712;SDS011;67640;55.784;49.138;2024-03-06T15:49:57;11.10;;;3.27;;
67712;SDS011;67640;55.784;49.138;2024-03-06T15:55:21;13.10;;;3.43;;
67712;SDS011;67640;55.784;49.138;2024-03-06T16:00:26;13.93;;;3.50;;
67712;SDS011;67640;55.784;49.138;2024-03-06T16:05:31;19.15;;;3.77;;
67712;SDS011;67640;55.784;49.138;2024-03-06T16:10:50;13.72;;;4.40;;
67712;SDS011;67640;55.784;49.138;2024-03-06T16:16:09;19.82;;;5.05;;
67712;SDS011;67640;55.784;49.138;2024-03-06T16:21:28;20.57;;;3.87;;
67712;SDS011;67640;55.784;49.138;2024-03-06T16:26:47;14.25;;;3.40;;
67712;SDS011;67640;55.784;49.138;2024-03-06T16:31:52;10.20;;;3.12;;
67712;SDS011;67640;55.784;49.138;2024-03-06T16:37:11;12.95;;;3.50;;
67712;SDS011;67640;55.784;49.138;2024-03-06T16:42:16;9.75;;;3.15;;
67712;SDS011;67640;55.784;49.138;2024-03-06T16:47:35;11.80;;;3.40;;
67712;SDS011;67640;55.784;49.138;2024-03-06T16:52:53;10.77;;;3.87;;
67712;SDS011;67640;55.784;49.138;2024-03-06T16:57:58;12.90;;;3.37;;
67712;SDS011;67640;55.784;49.138;2024-03-06T17:03:05;18.03;;;3.73;;
67712;SDS011;67640;55.784;49.138;2024-03-06T17:08:24;12.18;;;3.75;;
67712;SDS011;67640;55.784;49.138;2024-03-06T17:13:29;13.95;;;3.47;;
67712;SDS011;67640;55.784;49.138;2024-03-06T17:19:17;21.10;;;5.22;;
67712;SDS011;67640;55.784;49.138;2024-03-06T17:24:21;26.45;;;7.45;;
67712;SDS011;67640;55.784;49.138;2024-03-06T17:29:41;20.17;;;6.55;;
67712;SDS011;67640;55.784;49.138;2024-03-06T17:40:26;18.98;;;4.65;;
67712;SDS011;67640;55.784;49.138;2024-03-06T17:45:50;19.45;;;5.45;;
67712;SDS011;67640;55.784;49.138;2024-03-06T17:51:09;24.15;;;5.60;;
67712;SDS011;67640;55.784;49.138;2024-03-06T18:01:48;19.52;;;6.60;;
67712;SDS011;67640;55.784;49.138;2024-03-06T18:07:10;20.23;;;7.43;;
67712;SDS011;67640;55.784;49.138;2024-03-06T18:12:15;28.42;;;6.55;;
67712;SDS011;67640;55.784;49.138;2024-03-06T18:17:34;27.23;;;7.33;;
67712;SDS011;67640;55.784;49.138;2024-03-06T18:22:53;19.65;;;5.78;;
67712;SDS011;67640;55.784;49.138;2024-03-06T18:28:17;23.55;;;6.70;;
67712;SDS011;67640;55.784;49.138;2024-03-06T18:33:23;21.60;;;6.72;;
67712;SDS011;67640;55.784;49.138;2024-03-06T18:38:42;20.02;;;5.05;;
67712;SDS011;67640;55.784;49.138;2024-03-06T18:44:01;17.77;;;6.10;;
67712;SDS011;67640;55.784;49.138;2024-03-06T18:49:20;13.90;;;4.80;;
67712;SDS011;67640;55.784;49.138;2024-03-06T18:54:39;15.20;;;5.30;;
67712;SDS011;67640;55.784;49.138;2024-03-06T18:59:49;17.73;;;4.45;;
67712;SDS011;67640;55.784;49.138;2024-03-06T19:04:56;18.67;;;5.40;;
67712;SDS011;67640;55.784;49.138;2024-03-06T19:10:02;15.75;;;5.05;;
67712;SDS011;67640;55.784;49.138;2024-03-06T19:15:21;15.33;;;4.40;;
67712;SDS011;67640;55.784;49.138;2024-03-06T19:20:40;20.57;;;5.05;;
67712;SDS011;67640;55.784;49.138;2024-03-06T19:25:46;21.07;;;5.75;;
67712;SDS011;67640;55.784;49.138;2024-03-06T19:31:03;13.37;;;4.47;;
67712;SDS011;67640;55.784;49.138;2024-03-06T19:36:09;12.30;;;4.50;;
67712;SDS011;67640;55.784;49.138;2024-03-06T19:41:28;13.32;;;4.30;;
67712;SDS011;67640;55.784;49.138;2024-03-06T19:46:47;14.00;;;4.37;;
67712;SDS011;67640;55.784;49.138;2024-03-06T19:52:08;16.50;;;4.58;;
67712;SDS011;67640;55.784;49.138;2024-03-06T19:57:33;14.35;;;4.20;;
67712;SDS011;67640;55.784;49.138;2024-03-06T20:02:54;11.50;;;4.10;;
67712;SDS011;67640;55.784;49.138;2024-03-06T20:07:59;12.45;;;4.12;;
67712;SDS011;67640;55.784;49.138;2024-03-06T20:13:20;15.00;;;5.50;;
67712;SDS011;67640;55.784;49.138;2024-03-06T20:18:40;15.05;;;4.30;;
67712;SDS011;67640;55.784;49.138;2024-03-06T20:23:59;14.30;;;4.75;;
67712;SDS011;67640;55.784;49.138;2024-03-06T20:29:18;14.47;;;4.43;;
67712;SDS011;67640;55.784;49.138;2024-03-06T20:34:37;15.72;;;4.78;;
67712;SDS011;67640;55.784;49.138;2024-03-06T20:39:56;14.68;;;4.75;;
67712;SDS011;67640;55.784;49.138;2024-03-06T20:45:01;12.35;;;4.90;;
67712;SDS011;67640;55.784;49.138;2024-03-06T20:50:21;14.43;;;4.30;;
67712;SDS011;67640;55.784;49.138;2024-03-06T20:55:40;15.43;;;4.17;;
67712;SDS011;67640;55.784;49.138;2024-03-06T21:01:00;12.75;;;4.00;;
67712;SDS011;67640;55.784;49.138;2024-03-06T21:06:19;12.00;;;4.17;;
67712;SDS011;67640;55.784;49.138;2024-03-06T21:11:25;11.80;;;3.83;;
67712;SDS011;67640;55.784;49.138;2024-03-06T21:16:44;15.08;;;4.15;;
67712;SDS011;67640;55.784;49.138;2024-03-06T21:22:03;16.30;;;4.43;;
67712;SDS011;67640;55.784;49.138;2024-03-06T21:27:22;15.95;;;4.45;;
67712;SDS011;67640;55.784;49.138;2024-03-06T21:32:41;13.35;;;3.83;;
67712;SDS011;67640;55.784;49.138;2024-03-06T21:37:46;10.88;;;3.77;;
67712;SDS011;67640;55.784;49.138;2024-03-06T21:43:06;14.30;;;3.83;;
67712;SDS011;67640;55.784;49.138;2024-03-06T21:48:25;14.73;;;4.10;;
67712;SDS011;67640;55.784;49.138;2024-03-06T21:53:44;18.95;;;3.67;;
67712;SDS011;67640;55.784;49.138;2024-03-06T21:59:03;10.95;;;3.62;;
67712;SDS011;67640;55.784;49.138;2024-03-06T22:04:22;15.08;;;3.67;;
67712;SDS011;67640;55.784;49.138;2024-03-06T22:09:27;13.05;;;3.55;;
67712;SDS011;67640;55.784;49.138;2024-03-06T22:14:46;14.73;;;4.23;;
67712;SDS011;67640;55.784;49.138;2024-03-06T22:20:06;10.15;;;3.30;;
67712;SDS011;67640;55.784;49.138;2024-03-06T22:25:25;11.35;;;3.40;;
67712;SDS011;67640;55.784;49.138;2024-03-06T22:30:44;9.23;;;3.20;;
67712;SDS011;67640;55.784;49.138;2024-03-06T22:35:49;12.23;;;3.98;;
67712;SDS011;67640;55.784;49.138;2024-03-06T22:41:16;11.57;;;3.90;;
67712;SDS011;67640;55.784;49.138;2024-03-06T22:46:29;11.45;;;4.08;;
67712;SDS011;67640;55.784;49.138;2024-03-06T22:51:48;11.63;;;4.05;;
67712;SDS011;67640;55.784;49.138;2024-03-06T22:56:53;14.10;;;4.20;;
67712;SDS011;67640;55.784;49.138;2024-03-06T23:02:12;11.80;;;3.90;;
67712;SDS011;67640;55.784;49.138;2024-03-06T23:07:31;10.77;;;3.83;;
67712;SDS011;67640;55.784;49.138;2024-03-06T23:12:50;9.55;;;3.17;;
67712;SDS011;67640;55.784;49.138;2024-03-06T23:18:09;11.43;;;4.17;;
67712;SDS011;67640;55.784;49.138;2024-03-06T23:23:19;12.50;;;4.10;;
67712;SDS011;67640;55.784;49.138;2024-03-06T23:28:38;11.80;;;3.70;;
67712;SDS011;67640;55.784;49.138;2024-03-06T23:33:57;13.63;;;4.07;;
67712;SDS011;67640;55.784;49.138;2024-03-06T23:39:16;11.35;;;3.47;;
67712;SDS011;67640;55.784;49.138;2024-03-06T23:44:36;15.98;;;4.37;;
67712;SDS011;67640;55.784;49.138;2024-03-06T23:49:55;13.40;;;4.05;;
67712;SDS011;67640;55.784;49.138;2024-03-06T23:55:14;13.32;;;3.58;;
